createdAt,value
2019-05-29T00:00:30.189Z,16.00
2019-05-29T00:01:30.175Z,16.00
2019-05-29T00:02:30.162Z,16.00
2019-05-29T00:03:30.145Z,16.00
2019-05-29T00:04:30.142Z,16.00
2019-05-29T00:05:30.143Z,16.00
2019-05-29T00:06:30.135Z,16.00
2019-05-29T00:07:30.097Z,16.00
2019-05-29T00:08:30.100Z,16.00
2019-05-29T00:09:30.085Z,16.00
2019-05-29T00:10:30.063Z,16.00
2019-05-29T00:12:30.056Z,16.00
2019-05-29T00:13:30.029Z,16.00
2019-05-29T00:14:30.024Z,20.00
2019-05-29T00:16:30.007Z,20.00
2019-05-29T00:17:29.996Z,20.00
2019-05-29T00:18:41.693Z,20.00
2019-05-29T00:19:29.969Z,20.00
2019-05-29T00:20:29.955Z,24.00
2019-05-29T00:21:29.942Z,28.00
2019-05-29T00:22:29.939Z,28.00
2019-05-29T00:23:29.925Z,28.00
2019-05-29T00:24:29.917Z,28.00
2019-05-29T00:25:29.901Z,32.00
2019-05-29T00:26:29.897Z,32.00
2019-05-29T00:27:29.876Z,32.00
2019-05-29T00:28:29.876Z,36.00
2019-05-29T00:29:29.856Z,32.00
2019-05-29T00:30:29.846Z,32.00
2019-05-29T00:31:29.838Z,28.00
2019-05-29T00:32:29.840Z,32.00
2019-05-29T00:33:29.816Z,28.00
2019-05-29T00:34:29.809Z,32.00
2019-05-29T00:35:29.790Z,32.00
2019-05-29T00:36:29.789Z,28.00
2019-05-29T00:37:29.772Z,32.00
2019-05-29T00:38:29.771Z,36.00
2019-05-29T00:39:29.749Z,36.00
2019-05-29T00:40:29.740Z,44.00
2019-05-29T00:41:29.724Z,44.00
2019-05-29T00:42:29.711Z,48.00
2019-05-29T00:43:29.718Z,48.00
2019-05-29T00:44:34.378Z,48.00
2019-05-29T00:45:30.678Z,48.00
2019-05-29T00:46:29.668Z,48.00
2019-05-29T00:47:29.666Z,52.00
2019-05-29T00:48:29.643Z,56.00
2019-05-29T00:49:42.418Z,56.00
2019-05-29T00:50:29.628Z,60.00
2019-05-29T00:51:29.619Z,64.00
2019-05-29T00:52:29.605Z,60.00
2019-05-29T00:53:29.588Z,64.00
2019-05-29T00:54:29.591Z,68.00
2019-05-29T00:55:29.569Z,76.00
2019-05-29T00:56:29.561Z,84.00
2019-05-29T00:57:29.554Z,88.00
2019-05-29T00:58:29.540Z,92.00
2019-05-29T00:59:29.548Z,88.00
2019-05-29T01:00:29.527Z,80.00
2019-05-29T01:01:29.507Z,80.00
2019-05-29T01:02:29.489Z,84.00
2019-05-29T01:03:29.478Z,96.00
2019-05-29T01:04:29.479Z,100.00
2019-05-29T01:05:29.530Z,108.00
2019-05-29T01:06:29.450Z,116.00
2019-05-29T01:07:29.438Z,120.00
2019-05-29T01:08:29.423Z,112.00
2019-05-29T01:09:29.418Z,108.00
2019-05-29T01:10:29.410Z,108.00
2019-05-29T01:11:29.397Z,112.00
2019-05-29T01:12:29.393Z,112.00
2019-05-29T01:13:29.372Z,124.00
2019-05-29T01:14:29.363Z,124.00
2019-05-29T01:15:29.351Z,128.00
2019-05-29T01:16:29.346Z,124.00
2019-05-29T01:17:29.323Z,128.00
2019-05-29T01:18:29.321Z,132.00
2019-05-29T01:19:29.301Z,144.00
2019-05-29T01:20:41.439Z,152.00
2019-05-29T01:21:29.294Z,152.00
2019-05-29T01:24:29.252Z,164.00
2019-05-29T01:25:29.239Z,172.00
2019-05-29T01:26:29.283Z,180.00
2019-05-29T01:27:29.223Z,188.00
2019-05-29T01:28:29.212Z,208.00
2019-05-29T01:29:29.202Z,200.00
2019-05-29T01:30:29.194Z,204.00
2019-05-29T01:31:29.180Z,224.00
2019-05-29T01:32:29.186Z,224.00
2019-05-29T01:33:29.152Z,220.00
2019-05-29T01:34:29.155Z,204.00
2019-05-29T01:35:29.141Z,196.00
2019-05-29T01:36:29.129Z,188.00
2019-05-29T01:37:29.122Z,176.00
2019-05-29T01:38:29.175Z,172.00
2019-05-29T01:39:29.088Z,172.00
2019-05-29T01:40:29.699Z,188.00
2019-05-29T01:41:29.071Z,208.00
2019-05-29T01:42:29.068Z,216.00
2019-05-29T01:43:29.054Z,220.00
2019-05-29T01:44:29.034Z,188.00
2019-05-29T01:45:29.023Z,176.00
2019-05-29T01:46:29.024Z,184.00
2019-05-29T01:47:29.043Z,216.00
2019-05-29T01:48:28.988Z,216.00
2019-05-29T01:49:28.983Z,232.00
2019-05-29T01:50:28.965Z,288.00
2019-05-29T01:51:40.484Z,308.00
2019-05-29T01:52:28.945Z,380.00
2019-05-29T01:53:28.969Z,380.00
2019-05-29T01:54:28.927Z,356.00
2019-05-29T01:55:28.909Z,356.00
2019-05-29T01:56:28.908Z,344.00
2019-05-29T01:57:28.898Z,336.00
2019-05-29T01:58:28.886Z,356.00
2019-05-29T01:59:28.884Z,364.00
2019-05-29T02:00:28.857Z,364.00
2019-05-29T02:01:28.854Z,396.00
2019-05-29T02:02:28.834Z,424.00
2019-05-29T02:03:28.836Z,436.00
2019-05-29T02:04:28.821Z,404.00
2019-05-29T02:05:28.801Z,436.00
2019-05-29T02:06:28.791Z,520.00
2019-05-29T02:07:28.784Z,584.00
2019-05-29T02:08:28.820Z,544.00
2019-05-29T02:09:28.763Z,536.00
2019-05-29T02:10:28.748Z,588.00
2019-05-29T02:11:32.101Z,660.00
2019-05-29T02:12:28.727Z,700.00
2019-05-29T02:13:28.714Z,768.00
2019-05-29T02:14:28.728Z,768.00
2019-05-29T02:15:33.516Z,760.00
2019-05-29T02:16:29.689Z,744.00
2019-05-29T02:17:28.674Z,764.00
2019-05-29T02:18:28.659Z,828.00
2019-05-29T02:19:28.650Z,888.00
2019-05-29T02:20:28.644Z,952.00
2019-05-29T02:21:28.627Z,1000.00
2019-05-29T02:22:40.658Z,1044.00
2019-05-29T02:23:28.610Z,996.00
2019-05-29T02:24:28.635Z,952.00
2019-05-29T02:25:28.585Z,988.00
2019-05-29T02:26:28.575Z,960.00
2019-05-29T02:27:28.563Z,852.00
2019-05-29T02:28:28.558Z,796.00
2019-05-29T02:29:28.545Z,800.00
2019-05-29T02:30:30.910Z,848.00
2019-05-29T02:31:28.909Z,900.00
2019-05-29T02:32:28.517Z,984.00
2019-05-29T02:33:28.499Z,1252.00
2019-05-29T02:34:30.003Z,1504.00
2019-05-29T02:35:29.574Z,1536.00
2019-05-29T02:36:28.726Z,1572.00
2019-05-29T02:37:29.019Z,1520.00
2019-05-29T02:38:29.099Z,1540.00
2019-05-29T02:39:29.391Z,1568.00
2019-05-29T02:40:30.019Z,1460.00
2019-05-29T02:41:29.837Z,1264.00
2019-05-29T02:42:29.185Z,1216.00
2019-05-29T02:43:29.999Z,1284.00
2019-05-29T02:44:29.670Z,1280.00
2019-05-29T02:45:50.910Z,1196.00
2019-05-29T02:46:30.122Z,1128.00
2019-05-29T02:47:30.139Z,1080.00
2019-05-29T02:48:30.080Z,1152.00
2019-05-29T02:49:30.089Z,1124.00
2019-05-29T02:50:29.323Z,1132.00
2019-05-29T02:51:28.835Z,1120.00
2019-05-29T02:52:29.065Z,1080.00
2019-05-29T02:53:39.903Z,1072.00
2019-05-29T02:54:30.085Z,1088.00
2019-05-29T02:55:28.883Z,1144.00
2019-05-29T02:56:29.034Z,1212.00
2019-05-29T02:57:29.106Z,1280.00
2019-05-29T02:58:29.734Z,1304.00
2019-05-29T02:59:29.857Z,1344.00
2019-05-29T03:00:29.283Z,1380.00
2019-05-29T03:01:29.564Z,1352.00
2019-05-29T03:02:30.027Z,1240.00
2019-05-29T03:03:31.609Z,1164.00
2019-05-29T03:04:30.307Z,1144.00
2019-05-29T03:05:28.159Z,1124.00
2019-05-29T03:06:28.201Z,1188.00
2019-05-29T03:07:30.616Z,1324.00
2019-05-29T03:08:31.219Z,1292.00
2019-05-29T03:09:28.462Z,1260.00
2019-05-29T03:10:28.689Z,1228.00
2019-05-29T03:11:29.285Z,1244.00
2019-05-29T03:12:29.371Z,1324.00
2019-05-29T03:13:29.803Z,1364.00
2019-05-29T03:14:29.654Z,1368.00
2019-05-29T03:15:29.604Z,1384.00
2019-05-29T03:16:28.851Z,1384.00
2019-05-29T03:17:29.682Z,1412.00
2019-05-29T03:18:28.337Z,1396.00
2019-05-29T03:19:28.089Z,1360.00
2019-05-29T03:20:28.219Z,1380.00
2019-05-29T03:21:28.442Z,1468.00
2019-05-29T03:22:28.773Z,1464.00
2019-05-29T03:23:29.003Z,1496.00
2019-05-29T03:24:39.835Z,1504.00
2019-05-29T03:25:28.382Z,1476.00
2019-05-29T03:26:30.327Z,1436.00
2019-05-29T03:27:27.924Z,1368.00
2019-05-29T03:28:27.911Z,1364.00
2019-05-29T03:29:28.279Z,1336.00
2019-05-29T03:30:33.877Z,1096.00
2019-05-29T03:31:35.170Z,1100.00
2019-05-29T03:32:32.470Z,1292.00
2019-05-29T03:33:36.130Z,1408.00
2019-05-29T03:34:34.965Z,1404.00
2019-05-29T03:35:34.602Z,1400.00
2019-05-29T03:36:37.516Z,1276.00
2019-05-29T03:37:30.360Z,1148.00
2019-05-29T03:38:28.287Z,1036.00
2019-05-29T03:39:28.149Z,1036.00
2019-05-29T03:40:29.012Z,1168.00
2019-05-29T03:41:28.269Z,1144.00
2019-05-29T03:42:28.319Z,1152.00
2019-05-29T03:43:28.640Z,1028.00
2019-05-29T03:44:28.720Z,1052.00
2019-05-29T03:45:28.900Z,1196.00
2019-05-29T03:46:35.461Z,1592.00
2019-05-29T03:47:28.852Z,1924.00
2019-05-29T03:48:27.890Z,2036.00
2019-05-29T03:49:29.157Z,1748.00
2019-05-29T03:50:29.388Z,1528.00
2019-05-29T03:51:29.487Z,1372.00
2019-05-29T03:52:28.363Z,1188.00
2019-05-29T03:53:29.202Z,1132.00
2019-05-29T03:54:28.825Z,1328.00
2019-05-29T03:55:39.559Z,1580.00
2019-05-29T03:56:28.247Z,1808.00
2019-05-29T03:57:27.826Z,1764.00
2019-05-29T03:58:28.876Z,1392.00
2019-05-29T03:59:28.591Z,1204.00
2019-05-29T04:00:31.878Z,1072.00
2019-05-29T04:01:29.112Z,1020.00
2019-05-29T04:02:28.740Z,1064.00
2019-05-29T04:03:28.942Z,1068.00
2019-05-29T04:04:28.936Z,1176.00
2019-05-29T04:05:29.011Z,1300.00
2019-05-29T04:06:28.928Z,1424.00
2019-05-29T04:07:29.139Z,1676.00
2019-05-29T04:08:29.255Z,1988.00
2019-05-29T04:09:29.072Z,2040.00
2019-05-29T04:10:29.191Z,2028.00
2019-05-29T04:11:27.934Z,2056.00
2019-05-29T04:12:27.431Z,2132.00
2019-05-29T04:13:29.133Z,2220.00
2019-05-29T04:14:27.725Z,2400.00
2019-05-29T04:15:27.584Z,2564.00
2019-05-29T04:16:27.769Z,2744.00
2019-05-29T04:17:27.362Z,2728.00
2019-05-29T04:18:27.670Z,2628.00
2019-05-29T04:19:27.814Z,2600.00
2019-05-29T04:20:27.606Z,2748.00
2019-05-29T04:21:27.918Z,2656.00
2019-05-29T04:22:28.203Z,2668.00
2019-05-29T04:23:27.836Z,2520.00
2019-05-29T04:24:27.896Z,2372.00
2019-05-29T04:25:32.060Z,2256.00
2019-05-29T04:27:41.368Z,2084.00
2019-05-29T04:28:41.378Z,2024.00
2019-05-29T04:29:41.346Z,2016.00
2019-05-29T04:30:41.342Z,2088.00
2019-05-29T04:31:41.322Z,2052.00
2019-05-29T04:32:41.320Z,1980.00
2019-05-29T04:33:41.307Z,1904.00
2019-05-29T04:34:41.325Z,1952.00
2019-05-29T04:35:41.278Z,1984.00
2019-05-29T04:36:41.272Z,1912.00
2019-05-29T04:37:41.258Z,1720.00
2019-05-29T04:38:41.269Z,1740.00
2019-05-29T04:39:41.238Z,1884.00
2019-05-29T04:40:41.220Z,1772.00
2019-05-29T04:41:41.216Z,1704.00
2019-05-29T04:42:41.205Z,1712.00
2019-05-29T04:43:41.185Z,1672.00
2019-05-29T04:44:41.431Z,1772.00
2019-05-29T04:45:41.164Z,1892.00
2019-05-29T04:46:41.159Z,1820.00
2019-05-29T04:47:41.154Z,1792.00
2019-05-29T04:48:41.139Z,1804.00
2019-05-29T04:49:41.129Z,1624.00
2019-05-29T04:50:41.129Z,1556.00
2019-05-29T04:51:41.098Z,1456.00
2019-05-29T04:52:41.090Z,1748.00
2019-05-29T04:53:41.090Z,2056.00
2019-05-29T04:54:41.073Z,2312.00
2019-05-29T04:55:41.057Z,1864.00
2019-05-29T04:56:41.106Z,1688.00
2019-05-29T04:57:53.615Z,1796.00
2019-05-29T04:58:41.018Z,1948.00
2019-05-29T04:59:41.028Z,2008.00
2019-05-29T05:00:56.044Z,1920.00
2019-05-29T05:01:41.986Z,1700.00
2019-05-29T05:02:41.027Z,1636.00
2019-05-29T05:03:40.963Z,1648.00
2019-05-29T05:04:40.980Z,1752.00
2019-05-29T05:05:40.954Z,1920.00
2019-05-29T05:06:40.931Z,2116.00
2019-05-29T05:07:40.927Z,2244.00
2019-05-29T05:08:40.946Z,2352.00
2019-05-29T05:09:40.910Z,2676.00
2019-05-29T05:10:41.335Z,2676.00
2019-05-29T05:11:40.878Z,2632.00
2019-05-29T05:12:40.881Z,2420.00
2019-05-29T05:13:40.917Z,2348.00
2019-05-29T05:14:40.847Z,2260.00
2019-05-29T05:15:40.853Z,2296.00
2019-05-29T05:16:40.841Z,2356.00
2019-05-29T05:17:40.834Z,2916.00
2019-05-29T05:18:40.809Z,3180.00
2019-05-29T05:19:40.847Z,3036.00
2019-05-29T05:20:40.780Z,2840.00
2019-05-29T05:21:40.830Z,2752.00
2019-05-29T05:22:41.116Z,2788.00
2019-05-29T05:23:41.038Z,2884.00
2019-05-29T05:24:43.852Z,3060.00
2019-05-29T05:25:41.140Z,2928.00
2019-05-29T05:26:55.095Z,2824.00
2019-05-29T05:27:40.779Z,2944.00
2019-05-29T05:28:52.740Z,2896.00
2019-05-29T05:29:40.703Z,2800.00
2019-05-29T05:30:40.925Z,2612.00
2019-05-29T05:31:40.933Z,2520.00
2019-05-29T05:32:41.136Z,2596.00
2019-05-29T05:33:41.161Z,2652.00
2019-05-29T05:34:41.019Z,2900.00
2019-05-29T05:35:41.002Z,3056.00
2019-05-29T05:36:41.065Z,3100.00
2019-05-29T05:37:41.067Z,3452.00
2019-05-29T05:38:41.212Z,3320.00
2019-05-29T05:39:41.206Z,3368.00
2019-05-29T05:40:43.017Z,3488.00
2019-05-29T05:41:41.087Z,3300.00
2019-05-29T05:42:41.258Z,3272.00
2019-05-29T05:43:41.430Z,3244.00
2019-05-29T05:44:41.158Z,2988.00
2019-05-29T05:45:41.205Z,3016.00
2019-05-29T05:46:41.298Z,2920.00
2019-05-29T05:47:54.164Z,3012.00
2019-05-29T05:48:41.784Z,3096.00
2019-05-29T05:49:41.798Z,3072.00
2019-05-29T05:50:41.482Z,3180.00
2019-05-29T05:51:43.190Z,2988.00
2019-05-29T05:52:41.544Z,2724.00
2019-05-29T05:53:41.559Z,2648.00
2019-05-29T05:54:41.537Z,2824.00
2019-05-29T05:55:41.714Z,2880.00
2019-05-29T05:56:41.698Z,3132.00
2019-05-29T05:57:41.742Z,3280.00
2019-05-29T05:58:40.383Z,2880.00
2019-05-29T06:02:42.008Z,3096.00
2019-05-29T06:04:40.383Z,3056.00
2019-05-29T06:05:40.402Z,2856.00
2019-05-29T06:09:40.496Z,3068.00
2019-05-29T06:12:40.585Z,2820.00
2019-05-29T06:20:41.016Z,3572.00
2019-05-29T06:30:52.233Z,2780.00
2019-05-29T06:51:39.798Z,4544.00
2019-05-29T07:01:51.596Z,5488.00
2019-05-29T07:11:39.819Z,6124.00
2019-05-29T07:12:40.312Z,5920.00
2019-05-29T07:13:41.774Z,6660.00
2019-05-29T07:14:40.275Z,7092.00
2019-05-29T07:15:40.778Z,6800.00
2019-05-29T07:16:48.635Z,6672.00
2019-05-29T07:17:40.546Z,6388.00
2019-05-29T07:18:45.352Z,5888.00
2019-05-29T07:19:54.332Z,5816.00
2019-05-29T07:20:40.699Z,5584.00
2019-05-29T07:21:40.724Z,5704.00
2019-05-29T07:22:40.784Z,5760.00
2019-05-29T07:23:41.118Z,5488.00
2019-05-29T07:24:41.102Z,5804.00
2019-05-29T07:26:39.481Z,5672.00
2019-05-29T07:27:40.785Z,5828.00
2019-05-29T07:28:58.768Z,5808.00
2019-05-29T07:29:41.266Z,6724.00
2019-05-29T07:30:46.888Z,6948.00
2019-05-29T07:31:40.939Z,6648.00
2019-05-29T07:32:57.371Z,7564.00
2019-05-29T07:33:41.049Z,7452.00
2019-05-29T07:34:53.758Z,8432.00
2019-05-29T07:35:41.394Z,7984.00
2019-05-29T07:36:39.921Z,8448.00
2019-05-29T07:37:39.766Z,8640.00
2019-05-29T07:38:39.667Z,8600.00
2019-05-29T07:39:39.478Z,9208.00
2019-05-29T07:40:40.706Z,9396.00
2019-05-29T07:41:39.597Z,8480.00
2019-05-29T07:46:39.999Z,9280.00
2019-05-29T07:53:40.118Z,7844.00
2019-05-29T08:01:02.597Z,16116.00
2019-05-29T08:03:51.479Z,17856.00
2019-05-29T08:24:38.749Z,7184.00
2019-05-29T08:31:38.677Z,8384.00
2019-05-29T08:34:51.307Z,6916.00
2019-05-29T08:45:38.527Z,4108.00
2019-05-29T08:55:38.407Z,5404.00
2019-05-29T09:02:38.426Z,3860.00
2019-05-29T09:03:38.329Z,3988.00
2019-05-29T09:04:38.306Z,4160.00
2019-05-29T09:06:06.095Z,4476.00
2019-05-29T09:06:39.393Z,4224.00
2019-05-29T09:07:38.273Z,4428.00
2019-05-29T09:08:38.271Z,4964.00
2019-05-29T09:09:38.255Z,5928.00
2019-05-29T09:10:38.284Z,5548.00
2019-05-29T09:11:38.239Z,5528.00
2019-05-29T09:12:38.240Z,5572.00
2019-05-29T09:13:38.215Z,5332.00
2019-05-29T09:14:39.039Z,5136.00
2019-05-29T09:15:38.186Z,4884.00
2019-05-29T09:16:38.191Z,4340.00
2019-05-29T09:17:38.173Z,5516.00
2019-05-29T09:18:38.255Z,5440.00
2019-05-29T09:19:38.148Z,4720.00
2019-05-29T09:21:00.829Z,4324.00
2019-05-29T09:21:39.128Z,5160.00
2019-05-29T09:22:39.080Z,5924.00
2019-05-29T09:23:38.105Z,6912.00
2019-05-29T09:24:38.125Z,9148.00
2019-05-29T09:25:38.075Z,12776.00
2019-05-29T09:26:38.979Z,14764.00
2019-05-29T09:27:38.071Z,15780.00
2019-05-29T09:28:38.040Z,15700.00
2019-05-29T09:29:38.040Z,14808.00
2019-05-29T09:30:38.252Z,14468.00
2019-05-29T09:31:38.007Z,15580.00
2019-05-29T09:32:50.420Z,14064.00
2019-05-29T09:33:38.982Z,11512.00
2019-05-29T09:34:38.477Z,8368.00
2019-05-29T09:35:37.992Z,7272.00
2019-05-29T09:36:50.105Z,6676.00
2019-05-29T09:37:37.937Z,5776.00
2019-05-29T09:38:37.939Z,5276.00
2019-05-29T09:39:37.920Z,5156.00
2019-05-29T09:40:37.944Z,4532.00
2019-05-29T09:41:37.900Z,4232.00
2019-05-29T09:42:37.899Z,3484.00
2019-05-29T09:43:37.870Z,2892.00
2019-05-29T09:44:39.908Z,2844.00
2019-05-29T09:45:37.873Z,3532.00
2019-05-29T09:46:37.884Z,4472.00
2019-05-29T09:47:37.831Z,4328.00
2019-05-29T09:48:49.282Z,4264.00
2019-05-29T09:49:38.815Z,4112.00
2019-05-29T09:50:49.450Z,3992.00
2019-05-29T09:51:38.808Z,3920.00
2019-05-29T09:52:37.803Z,4432.00
2019-05-29T09:53:37.763Z,5256.00
2019-05-29T09:54:37.825Z,6412.00
2019-05-29T09:55:37.750Z,6452.00
2019-05-29T09:56:37.737Z,6076.00
2019-05-29T09:57:37.759Z,5572.00
2019-05-29T09:58:37.788Z,5184.00
2019-05-29T09:59:37.715Z,5516.00
2019-05-29T10:00:37.713Z,4824.00
2019-05-29T10:01:37.755Z,4720.00
2019-05-29T10:02:37.660Z,6016.00
2019-05-29T10:03:37.666Z,7160.00
2019-05-29T10:04:37.638Z,9408.00
2019-05-29T10:05:37.628Z,16740.00
2019-05-29T10:06:38.549Z,18208.00
2019-05-29T10:07:49.086Z,18720.00
2019-05-29T10:08:37.602Z,17964.00
2019-05-29T10:09:37.588Z,17072.00
2019-05-29T10:10:37.583Z,17156.00
2019-05-29T10:11:37.566Z,16988.00
2019-05-29T10:12:37.612Z,17520.00
2019-05-29T10:13:37.562Z,16152.00
2019-05-29T10:14:37.628Z,16068.00
2019-05-29T10:15:37.525Z,16064.00
2019-05-29T10:16:37.556Z,14404.00
2019-05-29T10:17:37.563Z,15228.00
2019-05-29T10:18:37.577Z,13016.00
2019-05-29T10:19:37.476Z,12256.00
2019-05-29T10:20:37.464Z,10208.00
2019-05-29T10:21:40.549Z,7988.00
2019-05-29T10:22:37.443Z,8080.00
2019-05-29T10:23:37.465Z,9644.00
2019-05-29T10:24:37.441Z,12936.00
2019-05-29T10:25:37.432Z,14520.00
2019-05-29T10:26:37.403Z,14572.00
2019-05-29T10:27:37.398Z,13420.00
2019-05-29T10:28:50.310Z,11936.00
2019-05-29T10:29:38.393Z,9804.00
2019-05-29T10:30:37.349Z,8100.00
2019-05-29T10:31:37.349Z,7548.00
2019-05-29T10:32:37.336Z,8120.00
2019-05-29T10:33:37.322Z,8008.00
2019-05-29T10:34:37.462Z,7288.00
2019-05-29T10:35:37.300Z,7352.00
2019-05-29T10:36:37.305Z,6996.00
2019-05-29T10:37:37.282Z,6864.00
2019-05-29T10:38:48.926Z,7704.00
2019-05-29T10:39:37.252Z,7532.00
2019-05-29T10:40:37.306Z,6384.00
2019-05-29T10:41:37.227Z,5484.00
2019-05-29T10:42:37.216Z,4844.00
2019-05-29T10:43:37.215Z,5228.00
2019-05-29T10:44:37.209Z,5016.00
2019-05-29T10:45:37.188Z,4960.00
2019-05-29T10:46:37.194Z,7208.00
2019-05-29T10:47:37.181Z,11356.00
2019-05-29T10:48:37.165Z,14088.00
2019-05-29T10:49:37.139Z,14704.00
2019-05-29T10:50:37.144Z,14824.00
2019-05-29T10:51:37.150Z,14308.00
2019-05-29T10:52:37.117Z,13252.00
2019-05-29T10:53:37.120Z,13780.00
2019-05-29T10:54:39.215Z,13380.00
2019-05-29T10:55:37.078Z,11228.00
2019-05-29T10:56:37.094Z,8952.00
2019-05-29T10:57:37.059Z,6916.00
2019-05-29T10:58:48.508Z,5908.00
2019-05-29T10:59:38.072Z,5696.00
2019-05-29T11:00:39.019Z,5364.00
2019-05-29T11:01:37.008Z,5240.00
2019-05-29T11:02:37.003Z,6104.00
2019-05-29T11:03:36.993Z,7624.00
2019-05-29T11:04:36.974Z,10280.00
2019-05-29T11:05:37.024Z,11740.00
2019-05-29T11:06:40.613Z,11820.00
2019-05-29T11:07:36.941Z,12624.00
2019-05-29T11:08:36.929Z,13632.00
2019-05-29T11:09:48.664Z,14788.00
2019-05-29T11:10:36.921Z,15608.00
2019-05-29T11:11:36.934Z,17728.00
2019-05-29T11:12:39.215Z,18848.00
2019-05-29T11:13:36.875Z,17856.00
2019-05-29T11:14:36.871Z,17664.00
2019-05-29T11:15:36.858Z,16768.00
2019-05-29T11:16:39.752Z,16976.00
2019-05-29T11:17:36.844Z,15436.00
2019-05-29T11:18:36.841Z,13712.00
2019-05-29T11:19:36.813Z,14060.00
2019-05-29T11:20:36.801Z,14188.00
2019-05-29T11:21:36.787Z,14404.00
2019-05-29T11:22:36.799Z,13980.00
2019-05-29T11:23:36.770Z,14304.00
2019-05-29T11:24:36.760Z,14028.00
2019-05-29T11:25:36.747Z,14208.00
2019-05-29T11:26:36.733Z,13620.00
2019-05-29T11:27:36.768Z,12692.00
2019-05-29T11:28:36.710Z,12900.00
2019-05-29T11:29:36.718Z,12724.00
2019-05-29T11:30:36.702Z,12516.00
2019-05-29T11:31:36.680Z,12560.00
2019-05-29T11:32:36.712Z,12688.00
2019-05-29T11:33:36.666Z,12780.00
2019-05-29T11:34:36.648Z,12104.00
2019-05-29T11:35:37.585Z,12248.00
2019-05-29T11:36:36.620Z,12356.00
2019-05-29T11:37:36.618Z,12076.00
2019-05-29T11:38:36.611Z,11204.00
2019-05-29T11:39:36.585Z,10304.00
2019-05-29T11:41:00.765Z,9748.00
2019-05-29T11:41:37.581Z,9652.00
2019-05-29T11:42:36.554Z,8876.00
2019-05-29T11:43:36.547Z,7848.00
2019-05-29T11:44:36.650Z,7392.00
2019-05-29T11:45:36.572Z,7088.00
2019-05-29T11:46:36.516Z,6524.00
2019-05-29T11:47:36.517Z,6240.00
2019-05-29T11:48:36.516Z,6184.00
2019-05-29T11:49:36.480Z,6816.00
2019-05-29T11:50:36.485Z,8072.00
2019-05-29T11:51:36.464Z,9908.00
2019-05-29T11:52:42.797Z,11980.00
2019-05-29T11:53:37.436Z,13280.00
2019-05-29T11:54:36.467Z,13528.00
2019-05-29T11:55:36.436Z,13032.00
2019-05-29T11:56:36.414Z,12844.00
2019-05-29T11:57:39.474Z,13104.00
2019-05-29T11:58:36.386Z,13352.00
2019-05-29T11:59:36.373Z,13396.00
2019-05-29T12:00:36.407Z,12756.00
2019-05-29T12:01:49.659Z,11384.00
2019-05-29T12:02:37.394Z,10272.00
2019-05-29T12:03:36.333Z,9756.00
2019-05-29T12:04:36.327Z,9740.00
2019-05-29T12:05:36.314Z,9056.00
2019-05-29T12:06:36.315Z,8616.00
2019-05-29T12:07:36.296Z,8588.00
2019-05-29T12:08:36.286Z,8796.00
2019-05-29T12:09:36.513Z,9568.00
2019-05-29T12:10:36.264Z,10284.00
2019-05-29T12:11:49.046Z,10664.00
2019-05-29T12:12:36.236Z,10736.00
2019-05-29T12:13:36.227Z,10332.00
2019-05-29T12:14:58.020Z,9924.00
2019-05-29T12:15:37.206Z,9992.00
2019-05-29T12:16:36.220Z,10276.00
2019-05-29T12:17:36.236Z,10184.00
2019-05-29T12:18:36.172Z,10184.00
2019-05-29T12:19:36.161Z,9624.00
2019-05-29T12:20:36.139Z,8860.00
2019-05-29T12:21:36.203Z,8748.00
2019-05-29T12:22:36.140Z,8732.00
2019-05-29T12:23:36.104Z,8924.00
2019-05-29T12:24:36.098Z,9504.00
2019-05-29T12:25:36.092Z,10084.00
2019-05-29T12:26:36.078Z,10684.00
2019-05-29T12:27:36.082Z,10592.00
2019-05-29T12:28:36.089Z,9860.00
2019-05-29T12:29:36.041Z,8644.00
2019-05-29T12:30:36.040Z,7348.00
2019-05-29T12:31:36.016Z,6332.00
2019-05-29T12:32:36.044Z,5676.00
2019-05-29T12:33:36.015Z,5240.00
2019-05-29T12:34:35.984Z,4880.00
2019-05-29T12:35:36.003Z,4964.00
2019-05-29T12:36:35.972Z,5604.00
2019-05-29T12:37:35.961Z,6664.00
2019-05-29T12:38:35.961Z,8236.00
2019-05-29T12:39:35.973Z,9644.00
2019-05-29T12:40:35.973Z,10072.00
2019-05-29T12:41:36.642Z,10340.00
2019-05-29T12:42:48.686Z,10720.00
2019-05-29T12:43:35.895Z,10736.00
2019-05-29T12:44:35.882Z,10556.00
2019-05-29T12:45:35.867Z,10492.00
2019-05-29T12:46:35.857Z,10640.00
2019-05-29T12:47:35.843Z,10944.00
2019-05-29T12:48:35.839Z,11956.00
2019-05-29T12:49:35.825Z,12840.00
2019-05-29T12:50:35.814Z,13376.00
2019-05-29T12:51:35.833Z,13864.00
2019-05-29T12:52:35.798Z,15140.00
2019-05-29T12:53:35.798Z,14780.00
2019-05-29T12:54:35.763Z,14448.00
2019-05-29T12:55:35.763Z,14232.00
2019-05-29T12:56:35.743Z,14132.00
2019-05-29T12:57:35.735Z,15432.00
2019-05-29T12:58:35.771Z,15160.00
2019-05-29T12:59:35.711Z,14740.00
2019-05-29T13:00:35.703Z,14296.00
2019-05-29T13:01:35.697Z,13552.00
2019-05-29T13:02:35.688Z,12588.00
2019-05-29T13:03:35.668Z,11744.00
2019-05-29T13:05:07.049Z,10924.00
2019-05-29T13:05:36.644Z,10056.00
2019-05-29T13:06:35.636Z,9484.00
2019-05-29T13:07:35.636Z,9144.00
2019-05-29T13:08:35.614Z,9072.00
2019-05-29T13:09:35.618Z,9104.00
2019-05-29T13:10:35.599Z,9408.00
2019-05-29T13:11:35.588Z,9776.00
2019-05-29T13:12:35.711Z,10468.00
2019-05-29T13:13:35.558Z,11596.00
2019-05-29T13:14:35.573Z,12300.00
2019-05-29T13:15:35.598Z,12876.00
2019-05-29T13:16:35.526Z,13268.00
2019-05-29T13:17:35.524Z,13716.00
2019-05-29T13:18:35.550Z,14412.00
2019-05-29T13:19:35.507Z,14192.00
2019-05-29T13:20:35.488Z,13804.00
2019-05-29T13:21:35.491Z,13700.00
2019-05-29T13:22:35.469Z,14148.00
2019-05-29T13:23:44.666Z,14664.00
2019-05-29T13:24:36.558Z,14932.00
2019-05-29T13:25:35.442Z,14972.00
2019-05-29T13:26:35.425Z,15424.00
2019-05-29T13:27:35.412Z,15096.00
2019-05-29T13:28:35.403Z,15276.00
2019-05-29T13:29:35.389Z,15836.00
2019-05-29T13:30:35.395Z,16100.00
2019-05-29T13:31:35.415Z,15780.00
2019-05-29T13:32:35.353Z,14556.00
2019-05-29T13:33:35.345Z,14236.00
2019-05-29T13:34:35.607Z,14176.00
2019-05-29T13:35:47.294Z,14344.00
2019-05-29T13:36:35.310Z,14256.00
2019-05-29T13:37:35.297Z,15488.00
2019-05-29T13:38:35.333Z,16472.00
2019-05-29T13:39:35.278Z,14196.00
2019-05-29T13:40:35.284Z,14108.00
2019-05-29T13:41:35.290Z,13856.00
2019-05-29T13:42:35.244Z,13456.00
2019-05-29T13:43:35.241Z,12888.00
2019-05-29T13:44:35.237Z,13008.00
2019-05-29T13:45:35.217Z,12552.00
2019-05-29T13:46:35.198Z,13352.00
2019-05-29T13:47:35.198Z,13328.00
2019-05-29T13:48:35.176Z,13508.00
2019-05-29T13:49:35.172Z,12812.00
2019-05-29T13:50:35.204Z,12512.00
2019-05-29T13:51:35.141Z,12220.00
2019-05-29T13:52:35.152Z,12916.00
2019-05-29T13:53:35.151Z,13228.00
2019-05-29T13:54:35.106Z,13748.00
2019-05-29T13:55:35.099Z,13452.00
2019-05-29T13:56:35.086Z,13268.00
2019-05-29T13:57:35.264Z,12908.00
2019-05-29T13:58:35.063Z,11048.00
2019-05-29T13:59:35.059Z,10464.00
2019-05-29T14:00:35.346Z,10316.00
2019-05-29T14:01:35.034Z,10604.00
2019-05-29T14:02:35.060Z,10844.00
2019-05-29T14:03:35.010Z,11160.00
2019-05-29T14:04:34.999Z,11692.00
2019-05-29T14:05:35.004Z,12564.00
2019-05-29T14:06:46.562Z,12924.00
2019-05-29T14:07:34.961Z,15460.00
2019-05-29T14:08:34.961Z,15176.00
2019-05-29T14:09:34.940Z,14908.00
2019-05-29T14:10:34.931Z,14416.00
2019-05-29T14:11:34.914Z,13504.00
2019-05-29T14:12:34.921Z,12984.00
2019-05-29T14:13:34.915Z,11924.00
2019-05-29T14:14:34.904Z,12332.00
2019-05-29T14:15:34.885Z,11536.00
2019-05-29T14:16:34.914Z,10424.00
2019-05-29T14:17:35.007Z,8840.00
2019-05-29T14:18:34.857Z,9256.00
2019-05-29T14:19:34.826Z,11976.00
2019-05-29T14:20:34.838Z,11836.00
2019-05-29T14:21:34.812Z,11532.00
2019-05-29T14:22:34.798Z,11632.00
2019-05-29T14:23:34.821Z,11232.00
2019-05-29T14:24:34.775Z,10852.00
2019-05-29T14:25:34.772Z,10500.00
2019-05-29T14:26:34.766Z,10180.00